createdAt,value
2022-09-15T00:00:16.916Z,37.07
2022-09-15T00:02:43.692Z,37.10
2022-09-15T00:05:10.370Z,38.60
2022-09-15T00:07:36.615Z,37.57
2022-09-15T00:10:04.173Z,36.57
2022-09-15T00:12:30.544Z,35.80
2022-09-15T00:14:56.868Z,33.53
2022-09-15T00:17:23.133Z,31.50
2022-09-15T00:19:49.521Z,33.30
2022-09-15T00:22:15.782Z,31.67
2022-09-15T00:24:42.079Z,32.13
2022-09-15T00:27:08.475Z,32.63
2022-09-15T00:29:35.756Z,27.63
2022-09-15T00:32:02.073Z,31.13
2022-09-15T00:34:28.293Z,29.80
2022-09-15T00:36:54.514Z,27.90
2022-09-15T00:39:20.833Z,29.30
2022-09-15T00:41:47.076Z,26.80
2022-09-15T00:44:16.316Z,28.40
2022-09-15T00:46:46.911Z,28.93
2022-09-15T00:49:32.300Z,27.83
2022-09-15T00:52:01.288Z,26.53
2022-09-15T00:54:35.672Z,26.70
2022-09-15T00:57:04.416Z,27.53
2022-09-15T00:59:31.993Z,29.40
2022-09-15T01:02:05.506Z,29.40
2022-09-15T01:04:32.130Z,28.63
2022-09-15T01:07:05.048Z,26.20
2022-09-15T01:09:38.505Z,26.70
2022-09-15T01:12:04.816Z,26.30
2022-09-15T01:14:31.387Z,28.17
2022-09-15T01:17:06.800Z,25.00
2022-09-15T01:19:51.724Z,30.73
2022-09-15T01:22:34.565Z,22.17
2022-09-15T01:25:08.576Z,22.70
2022-09-15T01:27:43.040Z,28.03
2022-09-15T01:30:12.496Z,24.27
2022-09-15T01:33:06.155Z,26.10
2022-09-15T01:35:50.301Z,28.60
2022-09-15T01:38:22.128Z,29.00
2022-09-15T01:40:52.529Z,28.83
2022-09-15T01:43:20.196Z,26.30
2022-09-15T01:45:48.024Z,29.60
2022-09-15T01:48:15.932Z,26.10
2022-09-15T01:50:47.055Z,28.43
2022-09-15T01:53:15.272Z,25.73
2022-09-15T01:55:44.095Z,24.53
2022-09-15T01:58:10.406Z,28.20
2022-09-15T02:00:38.351Z,28.50
2022-09-15T02:03:08.381Z,28.00
2022-09-15T02:05:41.602Z,27.97
2022-09-15T02:08:12.821Z,27.00
2022-09-15T02:11:08.261Z,32.67
2022-09-15T02:13:54.028Z,28.87
2022-09-15T02:16:21.767Z,31.23
2022-09-15T02:18:51.121Z,29.77
2022-09-15T02:21:20.000Z,27.87
2022-09-15T02:23:51.025Z,26.20
2022-09-15T02:26:20.598Z,30.47
2022-09-15T02:28:48.282Z,25.93
2022-09-15T02:31:16.050Z,26.03
2022-09-15T02:33:44.302Z,24.40
2022-09-15T02:36:13.677Z,24.30
2022-09-15T02:38:45.556Z,26.60
2022-09-15T02:41:13.154Z,25.33
2022-09-15T02:43:46.382Z,23.27
2022-09-15T02:46:13.214Z,23.63
2022-09-15T02:48:39.477Z,22.87
2022-09-15T02:51:05.811Z,26.83
2022-09-15T02:53:32.052Z,26.43
2022-09-15T02:55:58.768Z,28.43
2022-09-15T02:58:25.035Z,30.57
2022-09-15T03:00:51.904Z,25.43
2022-09-15T03:03:18.898Z,26.97
2022-09-15T03:05:45.113Z,28.50
2022-09-15T03:08:11.363Z,26.37
2022-09-15T03:10:37.613Z,29.23
2022-09-15T03:13:03.864Z,26.93
2022-09-15T03:15:30.161Z,25.20
2022-09-15T03:17:56.678Z,24.37
2022-09-15T03:20:24.016Z,26.80
2022-09-15T03:22:50.557Z,21.90
2022-09-15T03:25:17.594Z,23.47
2022-09-15T03:27:43.830Z,22.87
2022-09-15T03:30:11.100Z,23.10
2022-09-15T03:32:37.345Z,25.40
2022-09-15T03:35:04.556Z,27.07
2022-09-15T03:37:30.945Z,26.40
2022-09-15T03:39:57.222Z,26.13
2022-09-15T03:42:23.477Z,26.60
2022-09-15T03:44:49.753Z,24.63
2022-09-15T03:47:16.039Z,23.50
2022-09-15T03:49:42.288Z,23.57
2022-09-15T03:52:08.532Z,25.57
2022-09-15T03:54:35.529Z,25.47
2022-09-15T03:57:01.911Z,60.53
2022-09-15T03:59:28.167Z,48.70
2022-09-15T04:01:54.457Z,24.37
2022-09-15T04:04:20.783Z,25.03
2022-09-15T04:06:47.122Z,25.47
2022-09-15T04:09:13.731Z,25.70
2022-09-15T04:11:40.932Z,27.17
2022-09-15T04:14:07.320Z,22.97
2022-09-15T04:16:33.910Z,27.83
2022-09-15T04:19:00.313Z,24.33
2022-09-15T04:21:26.836Z,25.10
2022-09-15T04:23:53.908Z,27.87
2022-09-15T04:26:23.200Z,25.83
2022-09-15T04:28:49.545Z,26.90
2022-09-15T04:31:16.836Z,27.00
2022-09-15T04:33:43.141Z,28.90
2022-09-15T04:36:11.735Z,27.57
2022-09-15T04:38:38.693Z,28.43
2022-09-15T04:41:05.511Z,27.27
2022-09-15T04:43:32.274Z,30.63
2022-09-15T04:45:58.630Z,28.87
2022-09-15T04:48:25.644Z,33.53
2022-09-15T04:50:52.271Z,30.40
2022-09-15T04:53:19.033Z,28.00
2022-09-15T04:55:45.308Z,28.47
2022-09-15T04:58:11.644Z,32.83
2022-09-15T05:00:43.399Z,31.87
2022-09-15T05:03:13.482Z,31.43
2022-09-15T05:05:40.501Z,28.40
2022-09-15T05:08:07.287Z,31.63
2022-09-15T05:10:33.644Z,29.30
2022-09-15T05:13:00.204Z,28.10
2022-09-15T05:15:26.577Z,36.33
2022-09-15T05:17:52.888Z,195.07
2022-09-15T05:20:19.203Z,81.83
2022-09-15T05:22:45.549Z,36.73
2022-09-15T05:25:11.771Z,32.97
2022-09-15T05:27:39.265Z,33.67
2022-09-15T05:30:34.837Z,33.90
2022-09-15T05:32:53.220Z,34.17
2022-09-15T05:35:19.863Z,34.23
2022-09-15T05:37:46.128Z,36.67
2022-09-15T05:40:12.390Z,32.73
2022-09-15T05:42:38.617Z,32.87
2022-09-15T05:45:05.019Z,33.10
2022-09-15T05:47:31.307Z,34.30
2022-09-15T05:49:57.594Z,32.27
2022-09-15T05:52:23.856Z,49.87
2022-09-15T05:54:50.095Z,45.17
2022-09-15T05:57:16.401Z,33.87
2022-09-15T05:59:43.871Z,29.23
2022-09-15T06:02:11.447Z,31.40
2022-09-15T06:04:37.838Z,32.37
2022-09-15T06:07:04.113Z,34.47
2022-09-15T06:09:30.462Z,33.63
2022-09-15T06:11:56.760Z,30.53
2022-09-15T06:14:22.995Z,30.83
2022-09-15T06:16:49.273Z,33.77
2022-09-15T06:19:15.573Z,30.67
2022-09-15T06:21:41.938Z,31.17
2022-09-15T06:24:12.480Z,33.87
2022-09-15T06:26:38.830Z,33.50
2022-09-15T06:29:05.769Z,28.73
2022-09-15T06:31:33.394Z,35.00
2022-09-15T06:34:05.279Z,33.10
2022-09-15T06:36:31.751Z,42.53
2022-09-15T06:38:58.601Z,33.47
2022-09-15T06:41:24.979Z,29.87
2022-09-15T06:43:52.039Z,28.50
2022-09-15T06:46:19.966Z,28.13
2022-09-15T06:48:48.554Z,27.73
2022-09-15T06:51:16.943Z,26.27
2022-09-15T06:53:44.042Z,28.00
2022-09-15T06:56:13.685Z,24.43
2022-09-15T06:58:40.876Z,22.57
2022-09-15T07:01:14.648Z,24.80
2022-09-15T07:03:42.553Z,23.27
2022-09-15T07:06:09.898Z,21.20
2022-09-15T07:08:36.185Z,20.63
2022-09-15T07:11:09.857Z,22.73
2022-09-15T07:13:36.288Z,23.03
2022-09-15T07:16:03.968Z,17.97
2022-09-15T07:18:30.778Z,20.47
2022-09-15T07:21:00.927Z,17.87
2022-09-15T07:23:27.629Z,20.27
2022-09-15T07:26:04.399Z,135.73
2022-09-15T07:28:31.078Z,18.00
2022-09-15T07:30:57.400Z,19.00
2022-09-15T07:33:23.697Z,16.00
2022-09-15T07:35:50.020Z,14.57
2022-09-15T07:38:16.312Z,13.13
2022-09-15T07:40:42.606Z,15.33
2022-09-15T07:43:08.879Z,16.33
2022-09-15T07:45:36.054Z,19.07
2022-09-15T07:48:02.588Z,15.23
2022-09-15T07:50:28.885Z,14.50
2022-09-15T07:52:55.902Z,16.10
2022-09-15T07:55:22.497Z,13.87
2022-09-15T07:57:56.479Z,16.97
2022-09-15T08:00:22.841Z,17.13
2022-09-15T08:02:49.144Z,13.10
2022-09-15T08:05:15.534Z,14.00
2022-09-15T08:07:41.789Z,12.73
2022-09-15T08:10:09.885Z,14.70
2022-09-15T08:12:36.539Z,15.40
2022-09-15T08:15:03.518Z,16.13
2022-09-15T08:17:29.894Z,12.40
2022-09-15T08:19:56.212Z,15.43
2022-09-15T08:22:22.577Z,12.57
2022-09-15T08:24:48.845Z,11.97
2022-09-15T08:27:15.163Z,16.20
2022-09-15T08:29:41.555Z,14.73
2022-09-15T08:32:07.830Z,11.47
2022-09-15T08:34:34.215Z,15.20
2022-09-15T08:37:00.446Z,11.33
2022-09-15T08:39:26.834Z,14.37
2022-09-15T08:41:53.735Z,11.23
2022-09-15T08:44:23.087Z,13.00
2022-09-15T08:46:49.409Z,14.17
2022-09-15T08:49:35.606Z,11.93
2022-09-15T08:52:09.982Z,13.93
2022-09-15T08:54:37.947Z,12.00
2022-09-15T08:57:04.872Z,17.13
2022-09-15T08:59:34.989Z,17.70
2022-09-15T09:02:07.547Z,14.10
2022-09-15T09:04:49.703Z,16.47
2022-09-15T09:07:19.081Z,15.00
2022-09-15T09:09:49.253Z,13.63
2022-09-15T09:12:18.552Z,12.03
2022-09-15T09:14:49.053Z,14.90
2022-09-15T09:17:20.576Z,16.57
2022-09-15T09:20:05.643Z,16.83
2022-09-15T09:22:34.989Z,17.20
2022-09-15T09:25:11.596Z,12.87
2022-09-15T09:27:39.607Z,14.33
2022-09-15T09:30:12.276Z,17.43
2022-09-15T09:32:57.041Z,23.27
2022-09-15T09:35:41.797Z,15.20
2022-09-15T09:38:12.459Z,13.03
2022-09-15T09:40:41.325Z,11.97
2022-09-15T09:43:07.944Z,12.07
2022-09-15T09:45:34.249Z,8.03
2022-09-15T09:48:11.753Z,11.37
2022-09-15T09:50:39.466Z,50.67
2022-09-15T09:53:17.943Z,10.90
2022-09-15T09:55:45.834Z,13.13
2022-09-15T09:58:14.459Z,11.43
2022-09-15T10:00:41.117Z,11.17
2022-09-15T10:03:11.200Z,10.90
2022-09-15T10:05:37.642Z,15.70
2022-09-15T10:08:03.981Z,8.53
2022-09-15T10:10:32.301Z,8.03
2022-09-15T10:13:01.917Z,11.07
2022-09-15T10:15:29.897Z,13.80
2022-09-15T10:17:56.640Z,11.73
2022-09-15T10:20:28.157Z,11.57
2022-09-15T10:23:06.877Z,9.77
2022-09-15T10:25:59.434Z,9.87
2022-09-15T10:28:27.131Z,9.60
2022-09-15T10:31:15.920Z,9.97
2022-09-15T10:33:45.578Z,10.07
2022-09-15T10:36:16.591Z,6.73
2022-09-15T10:38:42.907Z,6.93
2022-09-15T10:41:17.059Z,9.43
2022-09-15T10:43:46.311Z,7.80
2022-09-15T10:46:13.959Z,6.93
2022-09-15T10:48:40.323Z,5.50
2022-09-15T10:51:09.642Z,8.10
2022-09-15T10:54:02.273Z,7.50
2022-09-15T10:56:38.714Z,11.77
2022-09-15T10:59:25.219Z,7.00
2022-09-15T11:02:10.482Z,13.00
2022-09-15T11:04:36.880Z,9.07
2022-09-15T11:07:03.147Z,9.00
2022-09-15T11:09:33.741Z,6.80
2022-09-15T11:12:06.436Z,7.50
2022-09-15T11:14:39.070Z,10.77
2022-09-15T11:17:11.504Z,7.70
2022-09-15T11:19:43.842Z,7.07
2022-09-15T11:22:13.284Z,4.90
2022-09-15T11:24:47.961Z,4.50
2022-09-15T11:27:14.316Z,4.63
2022-09-15T11:29:46.716Z,8.53
2022-09-15T11:32:15.848Z,4.07
2022-09-15T11:34:47.012Z,7.47
2022-09-15T11:37:17.117Z,6.13
2022-09-15T11:39:53.061Z,5.67
2022-09-15T11:42:25.580Z,5.97
2022-09-15T11:44:51.882Z,5.60
2022-09-15T11:47:30.807Z,3.33
2022-09-15T11:50:00.427Z,6.03
2022-09-15T11:52:45.496Z,2.93
2022-09-15T11:55:18.212Z,4.87
2022-09-15T11:57:47.475Z,6.30
2022-09-15T12:00:14.662Z,5.97
2022-09-15T12:02:43.963Z,3.27
2022-09-15T12:05:19.697Z,2.87
2022-09-15T12:07:56.558Z,2.90
2022-09-15T12:10:30.656Z,4.73
2022-09-15T12:12:57.768Z,6.40
2022-09-15T12:15:27.358Z,3.97
2022-09-15T12:17:56.851Z,5.57
2022-09-15T12:20:35.705Z,5.97
2022-09-15T12:23:04.752Z,3.60
2022-09-15T12:25:35.711Z,3.00
2022-09-15T12:28:21.034Z,2.77
2022-09-15T12:30:48.172Z,3.80
2022-09-15T12:33:53.471Z,4.23
2022-09-15T12:36:36.894Z,2.93
2022-09-15T12:39:05.312Z,5.50
2022-09-15T12:41:31.984Z,2.63
2022-09-15T12:44:00.589Z,5.60
2022-09-15T12:46:27.101Z,3.37
2022-09-15T12:48:57.539Z,3.03
2022-09-15T12:51:26.229Z,2.97
2022-09-15T12:54:04.409Z,2.80
2022-09-15T12:56:31.548Z,4.97
2022-09-15T12:59:06.500Z,2.23
2022-09-15T13:01:49.630Z,2.57
2022-09-15T13:04:27.793Z,2.30
2022-09-15T13:07:12.904Z,3.90
2022-09-15T13:09:43.937Z,3.53
2022-09-15T13:12:12.246Z,2.93
2022-09-15T13:14:41.899Z,2.67
2022-09-15T13:17:17.056Z,3.33
2022-09-15T13:19:46.603Z,4.27
2022-09-15T13:22:27.383Z,3.27
2022-09-15T13:24:59.111Z,8.47
2022-09-15T13:27:32.199Z,5.07
2022-09-15T13:30:07.519Z,7.87
2022-09-15T13:32:52.807Z,2.27
2022-09-15T13:35:27.309Z,8.63
2022-09-15T13:38:07.837Z,2.83
2022-09-15T13:40:57.620Z,4.20
2022-09-15T13:43:42.389Z,1.63
2022-09-15T13:46:14.899Z,4.03
2022-09-15T13:48:50.028Z,5.83
2022-09-15T13:51:27.935Z,2.47
2022-09-15T13:54:01.279Z,3.90
2022-09-15T13:56:27.637Z,3.23
2022-09-15T13:59:00.260Z,3.10
2022-09-15T14:01:34.053Z,2.37
2022-09-15T14:04:06.487Z,4.63
2022-09-15T14:06:37.630Z,2.10
2022-09-15T14:09:09.483Z,2.13
2022-09-15T14:11:36.805Z,4.33
2022-09-15T14:14:06.421Z,2.90
2022-09-15T14:16:34.405Z,4.50
2022-09-15T14:19:01.538Z,2.30
2022-09-15T14:21:29.290Z,5.33
2022-09-15T14:23:56.797Z,5.10
2022-09-15T14:26:24.544Z,6.80
2022-09-15T14:28:58.528Z,2.20
2022-09-15T14:31:33.404Z,6.67
2022-09-15T14:34:00.603Z,3.87
2022-09-15T14:36:35.961Z,2.47
2022-09-15T14:39:11.269Z,3.17
2022-09-15T14:41:43.091Z,2.93
2022-09-15T14:47:26.149Z,4.50
2022-09-15T14:50:05.741Z,1.53
2022-09-15T14:52:35.389Z,4.57
2022-09-15T14:55:03.172Z,3.07
2022-09-15T14:57:31.807Z,3.17
2022-09-15T15:00:00.816Z,1.43
2022-09-15T15:02:30.259Z,4.50
2022-09-15T15:05:01.126Z,5.57
2022-09-15T15:07:32.014Z,1.47
2022-09-15T15:10:03.533Z,1.73
2022-09-15T15:12:43.254Z,3.57
2022-09-15T15:15:13.522Z,4.30
2022-09-15T15:17:44.456Z,3.10
2022-09-15T15:20:10.653Z,7.50
2022-09-15T15:22:37.605Z,7.20
2022-09-15T15:25:20.790Z,3.37
2022-09-15T15:27:56.849Z,2.40
2022-09-15T15:30:32.156Z,3.27
2022-09-15T15:33:02.843Z,2.47
2022-09-15T15:35:29.929Z,3.83
2022-09-15T15:38:00.892Z,3.97
2022-09-15T15:40:27.338Z,3.73
2022-09-15T15:42:57.864Z,2.83
2022-09-15T15:45:27.809Z,4.17
2022-09-15T15:47:54.092Z,2.53
2022-09-15T15:50:22.162Z,2.57
2022-09-15T15:52:49.169Z,2.00
2022-09-15T15:55:16.941Z,4.67
2022-09-15T15:57:43.797Z,3.80
2022-09-15T16:00:28.751Z,3.87
2022-09-15T16:02:55.570Z,4.10
2022-09-15T16:05:24.962Z,3.13
2022-09-15T16:07:51.794Z,4.33
2022-09-15T16:10:19.013Z,2.40
2022-09-15T16:12:45.917Z,2.97
2022-09-15T16:15:19.264Z,4.43
2022-09-15T16:17:47.033Z,2.70
2022-09-15T16:20:15.805Z,3.87
2022-09-15T16:22:42.459Z,2.90
2022-09-15T16:25:30.796Z,2.87
2022-09-15T16:27:57.111Z,2.30
2022-09-15T16:30:23.331Z,26.20
2022-09-15T16:32:49.557Z,11.47
2022-09-15T16:35:19.759Z,3.20
2022-09-15T16:37:46.033Z,4.93
2022-09-15T16:40:12.314Z,3.37
2022-09-15T16:42:38.642Z,5.27
2022-09-15T16:45:14.032Z,3.43
2022-09-15T16:47:40.330Z,2.30
2022-09-15T16:50:06.675Z,4.30
2022-09-15T16:52:32.967Z,3.63
2022-09-15T16:54:59.207Z,2.67
2022-09-15T16:57:25.480Z,2.23
2022-09-15T16:59:51.708Z,4.33
2022-09-15T17:02:18.850Z,3.33
2022-09-15T17:04:45.169Z,1.57
2022-09-15T17:07:11.396Z,3.13
2022-09-15T17:09:37.620Z,4.53
2022-09-15T17:12:04.560Z,5.10
2022-09-15T17:14:31.060Z,2.27
2022-09-15T17:16:57.504Z,2.10
2022-09-15T17:19:23.719Z,2.23
2022-09-15T17:21:50.225Z,3.10
2022-09-15T17:24:17.376Z,3.03
2022-09-15T17:26:43.609Z,3.90
2022-09-15T17:29:09.817Z,3.77
2022-09-15T17:31:36.095Z,5.37
2022-09-15T17:34:02.576Z,2.30
2022-09-15T17:36:28.862Z,3.70
2022-09-15T17:38:55.641Z,5.50
2022-09-15T17:41:24.551Z,2.63
2022-09-15T17:43:51.305Z,2.20
2022-09-15T17:46:17.538Z,1.97
2022-09-15T17:48:43.836Z,2.70
2022-09-15T17:51:14.111Z,2.83
2022-09-15T17:53:40.368Z,4.40
2022-09-15T17:56:06.709Z,3.83
2022-09-15T17:58:33.290Z,5.03
2022-09-15T18:01:00.049Z,8.90
2022-09-15T18:03:31.041Z,2.47
2022-09-15T18:05:58.483Z,4.47
2022-09-15T18:08:25.365Z,4.47
2022-09-15T18:10:51.648Z,5.10
2022-09-15T18:13:19.744Z,3.30
2022-09-15T18:15:46.526Z,1.93
2022-09-15T18:18:14.611Z,3.40
2022-09-15T18:20:41.164Z,5.07
2022-09-15T18:23:10.352Z,7.67
2022-09-15T18:25:36.789Z,3.80
2022-09-15T18:28:03.826Z,3.10
2022-09-15T18:30:34.670Z,3.70
2022-09-15T18:33:00.913Z,3.50
2022-09-15T18:35:27.153Z,3.73
2022-09-15T18:37:57.788Z,2.80
2022-09-15T18:40:24.768Z,4.40
2022-09-15T18:42:51.561Z,5.63
2022-09-15T18:45:18.587Z,16.03
2022-09-15T18:47:48.992Z,6.40
2022-09-15T18:50:17.483Z,4.10
2022-09-15T18:52:43.897Z,2.87
2022-09-15T18:55:12.496Z,7.80
2022-09-15T18:57:39.662Z,3.93
2022-09-15T19:00:08.070Z,2.40
2022-09-15T19:02:34.402Z,4.57
2022-09-15T19:05:00.711Z,4.47
2022-09-15T19:07:28.505Z,4.50
2022-09-15T19:09:56.755Z,4.70
2022-09-15T19:12:23.157Z,4.33
2022-09-15T19:15:11.651Z,3.60
2022-09-15T19:17:38.483Z,4.17
2022-09-15T19:20:06.672Z,2.90
2022-09-15T19:22:33.234Z,4.73
2022-09-15T19:25:00.629Z,4.27
2022-09-15T19:27:38.190Z,3.93
2022-09-15T19:30:04.898Z,3.00
2022-09-15T19:32:32.505Z,3.47
2022-09-15T19:34:59.984Z,5.83
2022-09-15T19:37:26.279Z,1.53
2022-09-15T19:39:52.549Z,4.57
2022-09-15T19:42:18.898Z,3.00
2022-09-15T19:44:45.868Z,3.90
2022-09-15T19:47:12.140Z,3.53
2022-09-15T19:49:38.622Z,2.50
2022-09-15T19:52:06.207Z,3.97
2022-09-15T19:54:32.567Z,2.37
2022-09-15T19:56:58.828Z,3.23
2022-09-15T19:59:30.172Z,2.53
2022-09-15T20:01:57.469Z,3.10
2022-09-15T20:04:23.991Z,2.23
2022-09-15T20:06:50.325Z,3.17
2022-09-15T20:09:16.928Z,3.77
2022-09-15T20:11:43.185Z,2.43
2022-09-15T20:14:09.471Z,4.07
2022-09-15T20:16:36.118Z,3.03
2022-09-15T20:19:03.904Z,1.67
2022-09-15T20:21:49.286Z,3.27
2022-09-15T20:24:16.727Z,4.03
2022-09-15T20:26:42.988Z,2.37
2022-09-15T20:29:10.084Z,2.10
2022-09-15T20:31:36.323Z,4.67
2022-09-15T20:34:02.638Z,5.93
2022-09-15T20:36:30.400Z,2.53
2022-09-15T20:38:56.785Z,3.70
2022-09-15T20:41:24.016Z,3.03
2022-09-15T20:43:50.980Z,3.93
2022-09-15T20:46:18.832Z,5.30
2022-09-15T20:48:46.407Z,5.17
2022-09-15T20:51:20.615Z,2.80
2022-09-15T20:53:48.127Z,4.00
2022-09-15T20:56:15.713Z,4.37
2022-09-15T20:58:42.344Z,4.33
2022-09-15T21:01:19.951Z,4.77
2022-09-15T21:03:47.699Z,3.77
2022-09-15T21:06:15.469Z,4.27
2022-09-15T21:08:41.891Z,2.97
2022-09-15T21:11:13.309Z,2.83
2022-09-15T21:13:40.257Z,2.53
2022-09-15T21:16:16.488Z,4.40
2022-09-15T21:18:43.324Z,5.30
2022-09-15T21:21:11.717Z,5.17
2022-09-15T21:23:40.821Z,44.07
2022-09-15T21:26:08.517Z,10.33
2022-09-15T21:28:35.325Z,5.00
2022-09-15T21:31:08.649Z,4.30
2022-09-15T21:33:35.847Z,1.57
2022-09-15T21:36:06.221Z,4.93
2022-09-15T21:38:33.404Z,5.00
2022-09-15T21:40:59.853Z,3.53
2022-09-15T21:43:30.181Z,5.33
2022-09-15T21:45:57.025Z,9.27
2022-09-15T21:48:23.516Z,3.77
2022-09-15T21:50:50.880Z,4.70
2022-09-15T21:53:17.607Z,2.50
2022-09-15T21:55:43.871Z,2.33
2022-09-15T21:58:10.114Z,4.07
2022-09-15T22:00:36.741Z,3.67
2022-09-15T22:03:02.992Z,4.40
2022-09-15T22:05:29.643Z,3.10
2022-09-15T22:07:55.886Z,3.10
2022-09-15T22:10:22.149Z,4.40
2022-09-15T22:12:48.452Z,5.40
2022-09-15T22:15:15.582Z,4.23
2022-09-15T22:17:42.205Z,2.63
2022-09-15T22:20:09.275Z,4.77
2022-09-15T22:22:35.517Z,4.07
2022-09-15T22:25:01.794Z,2.87
2022-09-15T22:27:28.029Z,5.90
2022-09-15T22:29:54.242Z,4.70
2022-09-15T22:32:20.554Z,5.57
2022-09-15T22:34:46.879Z,1.83
2022-09-15T22:37:13.137Z,3.67
2022-09-15T22:39:58.029Z,8.27
2022-09-15T22:42:25.044Z,2.93
2022-09-15T22:44:51.376Z,2.93
2022-09-15T22:47:17.614Z,4.23
2022-09-15T22:49:43.821Z,3.37
2022-09-15T22:52:10.122Z,3.90
2022-09-15T22:54:36.350Z,2.80
2022-09-15T22:57:02.853Z,4.10
2022-09-15T22:59:29.417Z,4.30
2022-09-15T23:01:55.711Z,4.90
2022-09-15T23:04:21.974Z,4.83
2022-09-15T23:06:49.024Z,4.97
2022-09-15T23:09:15.488Z,3.47
2022-09-15T23:11:41.818Z,3.73
2022-09-15T23:14:12.136Z,2.87
2022-09-15T23:16:38.487Z,4.30
2022-09-15T23:19:05.185Z,4.97
2022-09-15T23:21:31.908Z,4.60
2022-09-15T23:23:59.120Z,3.83
2022-09-15T23:26:25.422Z,4.07
2022-09-15T23:28:51.673Z,3.97
2022-09-15T23:31:18.466Z,3.13
2022-09-15T23:33:45.147Z,6.93
2022-09-15T23:36:12.783Z,3.20
2022-09-15T23:38:39.855Z,4.23
2022-09-15T23:41:06.718Z,4.97
2022-09-15T23:43:33.245Z,3.60
2022-09-15T23:46:00.212Z,2.53
2022-09-15T23:48:26.694Z,5.83
2022-09-15T23:50:53.024Z,6.27
2022-09-15T23:53:19.432Z,1.93
2022-09-15T23:55:45.906Z,4.87
2022-09-15T23:58:12.145Z,3.00
